EUFO2: Eufaula Lake

Data processed at Sat Mar 10 2018 23:14


All information presented herein is the property of the government of the United States of America and may be revised or deleted at any time without prior notice.
Dissemination of this information without the expressed written consent of the Public Affairs Office, Tulsa District U.S. Army Corps of Engineers is strictly prohibited.
These data are gathered electronically and, as presented, have not undergone any form of quality control. These data are not guaranteed to be valid or correct.
Go to home page.
Go to station list.

Upstream stations:

Downstream station:
Previous Day
Next Day
Current Day
    
SHEF ID:       EUFO2     Eufaula Lake
STATION TYPE:  RESERVOIR
Normal Pool:  Bottom =   565.00, Top =   585.00

               PRECIP ELEVATION   STORAGE   TW-ELEV    INFLOW   RELEASE  AIR-TEMP  WIND-DIRWIND-SPEED REL-HUMID SOLAR-RAD   VOLTAGE  BAT-LOAD
                   in        ft     ac-ft        ft       cfs       cfs         F       deg       mph         %      W/m2      volt      volt
              Ccp-Rev   Ccp-Rev   Ccp-Rev   Ccp-Rev  Regi-Rev  Regi-Rev   Ccp-Rev   Ccp-Rev   Ccp-Rev   Ccp-Rev   Ccp-Rev   Ccp-Rev   Ccp-Rev
(US/Central)
03/08 00:00      0.00    587.53   2438851    490.52      1612     16300     41.65    102.80      0.35     66.54      0.00     13.76     13.53
03/08 01:00      0.00    587.52   2437856    490.50      1612     16000     41.76    322.20      0.89     57.33      0.00     13.76     13.53
03/08 02:00      0.00    587.50   2435866    490.49      1612     16000     40.87    327.20      1.00     72.41      0.00     13.76     13.53
03/08 03:00      0.00    587.48   2433876    490.49       348     16000     41.09    316.90      0.63     64.29      0.00     13.76     13.53
03/08 04:00      0.00    587.47   2432881    490.43       783     16000     39.99    331.70      1.45     60.86      0.00     13.76     13.53
03/08 05:00      0.00    587.47   2432881    490.51      1565     16000     39.34    328.50      1.14     53.42      0.00     13.76     13.18
03/08 06:00      0.00    587.45   2430892    490.52      1565     16000     37.80    335.30      0.80     67.64      0.00     13.76     13.53
03/08 07:00      0.00    587.44   2429897    490.46      1673     16000     35.60    332.80      0.64     70.63      3.00     13.75     13.53
03/08 08:00      0.00    587.43   2428902    490.46      1700     16000     38.79    357.80      0.08     65.81    124.00     13.75     13.53
03/08 09:00      0.00    587.42   2427907    490.47       917     16000     41.43    297.30      1.49     63.43    276.00     13.75     13.53
03/08 10:00      0.00    587.38   2423927    490.47       135     16000     43.63    269.80      1.32     48.78    469.00     13.76     13.36
03/08 11:00      0.00    587.38   2423927    490.51       135     16000     47.91    288.10      1.74     38.52    665.00     13.76     13.53
03/08 12:00      0.00    587.38   2423927    490.49        63     16000     50.00    309.00      0.75     33.33    716.00     13.76     13.53
03/08 13:00      0.00    587.36   2421938    490.48        72     16000     54.07    321.10      0.34     25.64    756.00     13.77     13.53
03/08 14:00      0.00    587.34   2419948    490.43        72     16000     56.03    357.80      0.09     25.52    817.00     13.77     13.53
03/08 15:00      0.00    587.33   2418953    490.45        72     16000     58.78    319.30      0.76     22.53    725.00     13.77     13.53
03/08 16:00      0.00    587.32   2417958    490.49        72     16000     60.22    296.60      1.98     21.55    446.00     13.77     13.53
03/08 17:00      0.00    587.31   2416963    490.48        36     16000     61.54    115.10      2.37     20.94    339.00     13.78     13.53
03/08 18:00      0.00    587.29   2414973    490.51         0     16000     58.91    106.80      4.84     26.37    102.00     13.78     13.53
03/08 19:00      0.00    587.27   2412984    490.52         0     16000     53.73    100.70      3.03     36.08      6.00     13.78     13.53
03/08 20:00      0.00    587.26   2411989    490.52         0     16000     52.18    116.70      1.95     37.05      0.00     13.78     13.53
03/08 21:00      0.00    587.26   2411989    490.49      2938     16000     46.81    112.10      3.18     59.46      0.00     13.78     13.53
03/08 22:00      0.00    587.23   2409004    490.38      6117     16000     48.58    119.00      4.11     47.99      0.00     13.78     13.53
03/08 23:00      0.00    587.23   2409004    490.46      6117     16000     48.99    121.20      3.99     50.67      0.00     13.77     13.53